Date,TemperatureHighF,TemperatureAvgF,TemperatureLowF,DewpointHighF,DewpointAvgF,DewpointLowF,HumidityHigh,HumidityAvg,HumidityLow,PressureMaxIn,PressureMinIn,WindSpeedMaxMPH,WindSpeedAvgMPH,GustSpeedMaxMPH,PrecipitationSumIn
2013-8-1,90,84,81,78,76,74,83,76,66,30.05,29.94,7,1,10,0.00
2013-8-2,90,82,75,79,75,72,95,82,61,30.05,29.91,5,0,11,0.24
2013-8-3,87,78,73,80,75,70,96,90,70,30.12,30.01,10,0,14,0.28
2013-8-4,89,80,75,80,76,74,97,87,67,30.10,29.98,9,1,10,0.00
2013-8-5,93,82,77,81,77,73,95,85,66,30.03,29.94,5,0,10,0.20
2013-8-6,88,82,76,80,76,73,97,84,73,29.98,29.88,7,0,10,0.00
2013-8-7,87,84,78,79,77,73,94,80,73,29.97,29.89,9,1,12,0.00
2013-8-8,89,86,83,79,77,72,83,74,64,30.01,29.92,10,2,13,0.00
2013-8-9,86,82,77,78,75,71,86,79,70,30.05,29.94,11,2,15,0.24
2013-8-10,89,85,81,79,77,75,85,78,66,30.11,30.02,7,2,11,0.00
2013-8-11,90,85,82,80,78,76,84,78,70,30.13,30.06,8,1,10,0.00
2013-8-12,90,84,80,80,76,73,83,76,67,30.10,30.00,6,0,10,0.00
2013-8-13,88,85,82,79,77,74,84,77,67,30.04,29.95,8,1,11,0.00
2013-8-14,88,85,82,78,76,75,83,76,68,30.02,29.93,7,1,13,0.00
2013-8-15,85,81,75,78,76,74,95,85,76,30.05,29.96,8,0,10,0.51
2013-8-16,89,85,79,81,79,76,95,81,71,30.05,29.97,6,1,9,0.00
2013-8-17,89,86,83,81,79,77,85,80,71,30.08,30.00,8,1,10,0.00
2013-8-18,89,85,82,81,78,75,85,80,72,30.07,29.99,8,1,12,0.00
2013-8-19,89,85,81,80,78,76,88,79,69,30.06,29.96,9,1,11,0.00
2013-8-20,90,85,79,80,77,73,92,78,68,30.06,29.98,7,0,12,0.08
2013-8-21,89,84,79,81,78,75,93,83,73,30.07,29.99,9,1,16,0.08
2013-8-22,89,85,76,81,78,73,97,81,73,30.07,29.95,12,1,25,0.28
2013-8-23,89,84,80,80,77,74,88,80,71,30.00,29.93,10,0,12,0.04
2013-8-24,89,84,76,80,77,73,93,79,70,30.10,29.96,7,0,12,0.28
2013-8-25,86,81,75,79,76,73,95,86,75,30.14,30.02,3,0,8,0.43
2013-8-26,89,82,78,80,76,73,89,80,69,30.11,30.01,7,0,14,0.00
2013-8-27,89,80,74,79,74,72,95,83,61,30.04,29.96,4,0,7,0.08
2013-8-28,86,82,77,78,75,73,96,81,70,30.04,29.94,5,0,9,0.55
2013-8-29,88,83,74,81,76,72,94,82,73,30.02,29.92,6,0,10,0.00
2013-8-30,88,83,76,78,75,72,96,79,61,30.00,29.89,8,1,13,0.00
2013-8-31,87,80,76,78,75,73,95,85,74,29.98,29.91,8,0,9,0.00